Time;durP1;ratioP1;P1;durP2;ratioP2;P2;SDS_P1;SDS_P2;PMS_P1;PMS_P2;Temp;Humidity;BMP_temperature;BMP_pressure;BME280_temperature;BME280_humidity;BME280_pressure;Samples;Min_cycle;Max_cycle;Signal;HPM_P1;HPM_P2
2021/10/19 00:01:45;;;;;;;17.00;15.30;;;;;;;;;;5058122;28;20222;-73
2021/10/19 00:04:12;;;;;;;16.50;14.80;;;;;;;;;;5058619;28;20556;-72
2021/10/19 00:06:38;;;;;;;20.20;16.07;;;;;;;;;;5056641;28;20276;-73
2021/10/19 00:09:06;;;;;;;18.83;15.00;;;;;;;;;;5057384;28;20231;-73
2021/10/19 00:11:32;;;;;;;16.37;14.73;;;;;;;;;;5057424;28;20230;-73
2021/10/19 00:13:58;;;;;;;18.57;15.87;;;;;;;;;;5058229;28;20238;-73
2021/10/19 00:16:27;;;;;;;19.40;15.60;;;;;;;;;;5058392;28;20265;-73
2021/10/19 00:18:53;;;;;;;16.47;14.13;;;;;;;;;;5057890;28;20239;-73
2021/10/19 00:21:21;;;;;;;17.60;15.80;;;;;;;;;;5058108;28;20339;-73
2021/10/19 00:23:47;;;;;;;18.57;16.20;;;;;;;;;;5057358;28;20226;-73
2021/10/19 00:26:15;;;;;;;16.87;15.00;;;;;;;;;;5057323;28;20218;-73
2021/10/19 00:28:42;;;;;;;17.03;15.23;;;;;;;;;;5059345;28;20211;-73
2021/10/19 00:31:08;;;;;;;17.40;14.27;;;;;;;;;;5058618;28;20249;-73
2021/10/19 00:33:34;;;;;;;20.20;15.47;;;;;;;;;;5059018;28;20833;-73
2021/10/19 00:36:01;;;;;;;16.87;15.20;;;;;;;;;;5056732;28;20210;-73
2021/10/19 00:38:27;;;;;;;18.17;15.60;;;;;;;;;;5060199;28;20283;-73
2021/10/19 00:40:54;;;;;;;17.37;15.50;;;;;;;;;;5056142;28;20218;-73
2021/10/19 00:43:23;;;;;;;17.27;15.40;;;;;;;;;;5056924;28;21150;-73
2021/10/19 00:45:50;;;;;;;20.90;15.83;;;;;;;;;;5058697;28;20212;-73
2021/10/19 00:48:17;;;;;;;17.93;16.03;;;;;;;;;;5057876;28;20215;-73
2021/10/19 00:50:44;;;;;;;15.90;14.30;;;;;;;;;;5059568;28;20234;-73
2021/10/19 00:53:11;;;;;;;19.20;15.40;;;;;;;;;;5055030;28;20279;-73
2021/10/19 00:55:38;;;;;;;17.27;15.57;;;;;;;;;;5058889;28;20582;-73
2021/10/19 00:58:06;;;;;;;18.00;16.13;;;;;;;;;;5057471;28;20213;-73
2021/10/19 01:00:34;;;;;;;17.67;15.97;;;;;;;;;;5056039;28;20280;-73
2021/10/19 01:03:02;;;;;;;16.90;15.17;;;;;;;;;;5059845;28;20214;-73
2021/10/19 01:05:28;;;;;;;17.70;15.80;;;;;;;;;;5056704;28;20230;-73
2021/10/19 01:07:55;;;;;;;18.10;16.30;;;;;;;;;;5058072;28;20600;-73
2021/10/19 01:10:21;;;;;;;17.67;15.87;;;;;;;;;;5055731;28;20218;-73
2021/10/19 01:12:49;;;;;;;17.27;15.57;;;;;;;;;;5054140;28;20243;-73
2021/10/19 01:15:18;;;;;;;18.10;15.33;;;;;;;;;;5056484;28;20599;-74
2021/10/19 01:17:47;;;;;;;17.60;15.77;;;;;;;;;;5058923;28;20223;-73
2021/10/19 01:20:26;;;;;;;17.93;16.07;;;;;;;;;;5055582;28;20282;-73
2021/10/19 01:22:53;;;;;;;16.90;15.10;;;;;;;;;;5056340;28;20210;-73
2021/10/19 01:25:22;;;;;;;20.83;15.57;;;;;;;;;;5057011;28;20210;-73
2021/10/19 01:27:50;;;;;;;17.13;15.17;;;;;;;;;;5055742;28;20226;-73
2021/10/19 01:30:17;;;;;;;17.67;15.17;;;;;;;;;;5056845;28;20889;-73
2021/10/19 01:32:43;;;;;;;17.23;15.43;;;;;;;;;;5056755;28;20837;-73
2021/10/19 01:35:10;;;;;;;17.00;15.37;;;;;;;;;;5056163;28;20784;-73
2021/10/19 01:37:38;;;;;;;17.90;14.93;;;;;;;;;;5058426;28;20214;-73
2021/10/19 01:40:08;;;;;;;18.37;15.90;;;;;;;;;;5056922;28;20279;-73
2021/10/19 01:42:35;;;;;;;17.30;15.50;;;;;;;;;;5055789;28;20299;-74
2021/10/19 01:45:01;;;;;;;19.23;16.77;;;;;;;;;;5057939;28;20657;-73
2021/10/19 01:47:28;;;;;;;17.13;15.47;;;;;;;;;;5055182;28;20213;-73
2021/10/19 01:49:55;;;;;;;16.90;15.20;;;;;;;;;;5056038;28;20284;-73
2021/10/19 01:52:21;;;;;;;18.10;16.20;;;;;;;;;;5055209;28;20226;-73
2021/10/19 01:54:49;;;;;;;17.10;14.70;;;;;;;;;;5055262;28;20233;-73
2021/10/19 01:57:15;;;;;;;19.67;16.27;;;;;;;;;;5054585;28;20206;-73
2021/10/19 01:59:42;;;;;;;24.27;16.53;;;;;;;;;;5056589;28;20264;-73
2021/10/19 02:02:08;;;;;;;18.40;16.50;;;;;;;;;;5055765;28;20206;-73
2021/10/19 02:04:34;;;;;;;19.37;17.37;;;;;;;;;;5053270;28;20755;-73
2021/10/19 02:07:01;;;;;;;17.63;15.83;;;;;;;;;;5056752;28;20213;-73
2021/10/19 02:09:27;;;;;;;19.27;17.10;;;;;;;;;;5055628;28;20284;-74
2021/10/19 02:11:55;;;;;;;19.73;16.20;;;;;;;;;;5056164;28;20308;-73
2021/10/19 02:14:22;;;;;;;16.93;14.97;;;;;;;;;;5055417;28;20244;-74
2021/10/19 02:16:48;;;;;;;18.20;16.20;;;;;;;;;;5057842;28;20261;-73
2021/10/19 02:19:14;;;;;;;18.30;16.50;;;;;;;;;;5055417;28;20240;-74
2021/10/19 02:21:41;;;;;;;18.33;16.43;;;;;;;;;;5056705;28;20214;-73
2021/10/19 02:24:07;;;;;;;17.87;15.97;;;;;;;;;;5055938;28;20276;-73
2021/10/19 02:26:34;;;;;;;18.00;15.80;;;;;;;;;;5055899;28;20236;-73
2021/10/19 02:29:01;;;;;;;17.87;16.03;;;;;;;;;;5054988;28;20297;-73
2021/10/19 02:31:28;;;;;;;18.17;16.27;;;;;;;;;;5054085;28;20214;-73
2021/10/19 02:33:54;;;;;;;18.33;16.10;;;;;;;;;;5055213;28;20643;-73
2021/10/19 02:36:21;;;;;;;18.87;16.07;;;;;;;;;;5055051;28;20632;-73
2021/10/19 02:38:48;;;;;;;21.00;16.20;;;;;;;;;;5053499;28;20678;-73
2021/10/19 02:41:14;;;;;;;18.30;16.27;;;;;;;;;;5054354;28;20659;-73
2021/10/19 02:43:41;;;;;;;19.87;16.43;;;;;;;;;;5056070;28;20214;-73
2021/10/19 02:46:08;;;;;;;18.10;16.33;;;;;;;;;;5057499;28;20255;-73
2021/10/19 02:48:35;;;;;;;17.53;15.73;;;;;;;;;;5053059;28;20218;-73
2021/10/19 02:51:01;;;;;;;18.07;16.27;;;;;;;;;;5054459;28;20644;-73
2021/10/19 02:53:28;;;;;;;16.80;15.07;;;;;;;;;;5056716;28;20236;-73
2021/10/19 02:55:54;;;;;;;17.33;15.63;;;;;;;;;;5055376;28;20287;-73
2021/10/19 02:58:21;;;;;;;19.23;17.20;;;;;;;;;;5053666;28;20272;-73
2021/10/19 03:00:47;;;;;;;18.30;16.40;;;;;;;;;;5055170;28;20266;-73
2021/10/19 03:03:15;;;;;;;17.13;15.40;;;;;;;;;;5054498;28;20760;-74
2021/10/19 03:05:41;;;;;;;18.33;16.57;;;;;;;;;;5054536;28;20283;-73
2021/10/19 03:08:07;;;;;;;16.93;15.40;;;;;;;;;;5054533;28;20231;-73
2021/10/19 03:10:34;;;;;;;18.67;16.77;;;;;;;;;;5052901;28;20207;-73
2021/10/19 03:13:00;;;;;;;18.57;16.57;;;;;;;;;;5055760;28;20245;-76
2021/10/19 03:15:27;;;;;;;17.40;15.60;;;;;;;;;;5054370;28;20279;-76
2021/10/19 03:17:53;;;;;;;17.87;15.97;;;;;;;;;;5054716;28;20559;-76
2021/10/19 03:20:21;;;;;;;18.53;16.60;;;;;;;;;;5054898;28;20271;-73
2021/10/19 03:22:48;;;;;;;19.10;16.73;;;;;;;;;;5054436;28;20569;-74
2021/10/19 03:25:14;;;;;;;17.93;16.20;;;;;;;;;;5055125;28;20233;-73
2021/10/19 03:27:40;;;;;;;20.13;18.20;;;;;;;;;;5055304;28;20222;-73
2021/10/19 03:30:07;;;;;;;19.00;17.00;;;;;;;;;;5054950;28;20709;-73
2021/10/19 03:32:34;;;;;;;20.57;18.40;;;;;;;;;;5054782;28;20234;-73
2021/10/19 03:35:00;;;;;;;21.13;19.03;;;;;;;;;;5055118;28;20776;-73
2021/10/19 03:37:28;;;;;;;22.33;19.23;;;;;;;;;;5053683;28;20210;-73
2021/10/19 03:39:54;;;;;;;21.37;18.83;;;;;;;;;;5052766;28;20638;-73
2021/10/19 03:42:21;;;;;;;21.33;19.03;;;;;;;;;;5053601;28;20271;-73
2021/10/19 03:44:47;;;;;;;23.23;20.20;;;;;;;;;;5054018;28;20214;-73
2021/10/19 03:47:14;;;;;;;23.57;20.83;;;;;;;;;;5055033;28;20579;-73
2021/10/19 03:49:40;;;;;;;27.40;24.13;;;;;;;;;;5054557;28;20459;-73
2021/10/19 03:52:07;;;;;;;25.20;22.00;;;;;;;;;;5053805;28;20653;-73
2021/10/19 03:54:34;;;;;;;25.33;22.53;;;;;;;;;;5053110;28;20283;-73
2021/10/19 03:57:01;;;;;;;25.97;22.80;;;;;;;;;;5053211;28;20588;-74
2021/10/19 03:59:28;;;;;;;27.70;24.03;;;;;;;;;;5055688;28;20674;-74
2021/10/19 04:01:55;;;;;;;30.37;25.13;;;;;;;;;;5054095;28;20236;-74
2021/10/19 04:04:22;;;;;;;30.70;25.37;;;;;;;;;;5054687;28;20559;-74
2021/10/19 04:06:49;;;;;;;26.47;22.87;;;;;;;;;;5053397;28;20800;-74
2021/10/19 04:09:16;;;;;;;29.03;25.03;;;;;;;;;;5054463;28;20261;-74
2021/10/19 04:11:43;;;;;;;30.83;24.97;;;;;;;;;;5055683;28;20272;-74
2021/10/19 04:14:10;;;;;;;33.53;26.60;;;;;;;;;;5054422;28;20241;-74
2021/10/19 04:16:37;;;;;;;28.83;24.83;;;;;;;;;;5054054;28;20256;-74
2021/10/19 04:19:04;;;;;;;29.77;26.17;;;;;;;;;;5055533;28;20226;-74
2021/10/19 04:21:30;;;;;;;35.43;27.17;;;;;;;;;;5053659;28;20696;-74
2021/10/19 04:23:57;;;;;;;32.63;26.77;;;;;;;;;;5052980;28;20227;-74
2021/10/19 04:26:23;;;;;;;32.13;26.03;;;;;;;;;;5053948;28;20211;-74
2021/10/19 04:28:51;;;;;;;36.20;27.97;;;;;;;;;;5057119;28;20239;-74
2021/10/19 04:31:18;;;;;;;37.83;30.17;;;;;;;;;;5057129;28;20210;-74
2021/10/19 04:33:44;;;;;;;38.23;27.90;;;;;;;;;;5058571;28;20288;-74
2021/10/19 04:36:11;;;;;;;43.87;31.27;;;;;;;;;;5058394;28;20214;-74
2021/10/19 04:38:37;;;;;;;44.13;32.40;;;;;;;;;;5057853;28;20272;-74
2021/10/19 04:41:04;;;;;;;41.67;30.13;;;;;;;;;;5057477;28;20225;-74
2021/10/19 04:43:30;;;;;;;40.70;31.63;;;;;;;;;;5057900;28;20211;-74
2021/10/19 04:45:58;;;;;;;34.63;28.60;;;;;;;;;;5055313;28;20244;-74
2021/10/19 04:48:26;;;;;;;40.20;31.37;;;;;;;;;;5058819;28;20640;-74
2021/10/19 04:50:52;;;;;;;44.10;31.90;;;;;;;;;;5058188;28;20217;-74
2021/10/19 04:53:19;;;;;;;37.07;30.93;;;;;;;;;;5056712;28;20249;-74
2021/10/19 04:55:47;;;;;;;40.03;32.27;;;;;;;;;;5056163;28;20223;-73
2021/10/19 04:58:13;;;;;;;39.13;32.00;;;;;;;;;;5057354;28;20236;-74
2021/10/19 05:00:41;;;;;;;39.23;31.67;;;;;;;;;;5056731;28;20257;-74
2021/10/19 05:03:09;;;;;;;39.03;32.33;;;;;;;;;;5057768;28;20661;-74
2021/10/19 05:05:36;;;;;;;41.90;33.67;;;;;;;;;;5058334;28;20256;-74
2021/10/19 05:08:02;;;;;;;39.13;32.03;;;;;;;;;;5057109;28;20260;-74
2021/10/19 05:10:29;;;;;;;41.43;32.23;;;;;;;;;;5055867;28;20353;-74
2021/10/19 05:12:55;;;;;;;39.17;32.30;;;;;;;;;;5056537;28;20667;-75
2021/10/19 05:15:22;;;;;;;38.87;32.57;;;;;;;;;;5057525;28;20218;-75
2021/10/19 05:17:49;;;;;;;39.17;32.03;;;;;;;;;;5056511;28;21218;-75
2021/10/19 05:20:17;;;;;;;33.83;29.77;;;;;;;;;;5056866;28;20222;-75
2021/10/19 05:22:43;;;;;;;37.60;31.23;;;;;;;;;;5056021;28;20214;-74
2021/10/19 05:25:10;;;;;;;36.97;31.37;;;;;;;;;;5056318;28;20222;-74
2021/10/19 05:27:36;;;;;;;40.50;32.73;;;;;;;;;;5055450;28;20222;-75
2021/10/19 05:30:03;;;;;;;34.60;30.07;;;;;;;;;;5055704;28;20218;-75
2021/10/19 05:32:29;;;;;;;35.80;30.73;;;;;;;;;;5056555;28;20214;-74
2021/10/19 05:34:56;;;;;;;36.20;30.80;;;;;;;;;;5057445;28;20246;-75
2021/10/19 05:37:24;;;;;;;45.03;33.47;;;;;;;;;;5054897;28;20626;-75
2021/10/19 05:39:50;;;;;;;33.97;29.33;;;;;;;;;;5054987;28;20298;-75
2021/10/19 05:42:17;;;;;;;34.90;30.73;;;;;;;;;;5056354;28;20220;-75
2021/10/19 05:44:43;;;;;;;32.77;29.27;;;;;;;;;;5055746;28;20208;-75
2021/10/19 05:47:10;;;;;;;33.53;29.07;;;;;;;;;;5055172;28;20547;-75
2021/10/19 05:49:36;;;;;;;32.40;27.80;;;;;;;;;;5055630;28;20308;-75
2021/10/19 05:52:03;;;;;;;29.57;26.47;;;;;;;;;;5054570;28;20731;-75
2021/10/19 05:54:31;;;;;;;28.67;25.57;;;;;;;;;;5055228;28;20222;-74
2021/10/19 05:56:58;;;;;;;31.77;28.40;;;;;;;;;;5054799;28;20208;-74
2021/10/19 05:59:24;;;;;;;29.73;26.53;;;;;;;;;;5055023;28;20214;-77
2021/10/19 06:01:51;;;;;;;31.73;28.27;;;;;;;;;;5055034;28;20209;-75
2021/10/19 06:04:18;;;;;;;31.30;28.00;;;;;;;;;;5055660;28;20746;-75
2021/10/19 06:06:53;;;;;;;31.00;27.70;;;;;;;;;;5054260;28;20242;-74
2021/10/19 06:09:19;;;;;;;30.13;26.90;;;;;;;;;;5053519;28;20236;-74
2021/10/19 06:11:47;;;;;;;29.23;26.13;;;;;;;;;;5054542;28;20213;-74
2021/10/19 06:14:14;;;;;;;29.43;26.47;;;;;;;;;;5052405;28;20293;-75
2021/10/19 06:16:40;;;;;;;31.47;28.10;;;;;;;;;;5054402;28;20223;-74
2021/10/19 06:19:07;;;;;;;30.20;27.10;;;;;;;;;;5055224;28;20689;-74
2021/10/19 06:21:33;;;;;;;28.20;25.23;;;;;;;;;;5052853;28;20202;-74
2021/10/19 06:24:00;;;;;;;27.43;24.63;;;;;;;;;;5052284;28;20231;-76
2021/10/19 06:26:26;;;;;;;30.07;26.90;;;;;;;;;;5053369;28;21039;-74
2021/10/19 06:28:54;;;;;;;29.00;26.00;;;;;;;;;;5055049;28;20268;-74
2021/10/19 06:31:21;;;;;;;25.20;22.83;;;;;;;;;;5054945;28;20211;-74
2021/10/19 06:33:47;;;;;;;28.90;25.87;;;;;;;;;;5055412;28;20742;-74
2021/10/19 06:36:13;;;;;;;27.47;24.77;;;;;;;;;;5053658;28;20210;-75
2021/10/19 06:38:40;;;;;;;27.43;24.67;;;;;;;;;;5054257;28;20224;-74
2021/10/19 06:41:06;;;;;;;26.53;23.90;;;;;;;;;;5051586;28;20614;-74
2021/10/19 06:43:33;;;;;;;28.20;25.07;;;;;;;;;;5055206;28;20228;-74
2021/10/19 06:46:00;;;;;;;27.77;24.97;;;;;;;;;;5053394;28;21055;-74
2021/10/19 06:48:27;;;;;;;26.43;23.77;;;;;;;;;;5053960;28;20214;-77
2021/10/19 06:50:53;;;;;;;27.40;24.47;;;;;;;;;;5051683;28;20219;-74
2021/10/19 06:53:20;;;;;;;26.00;23.47;;;;;;;;;;5054186;28;20767;-75
2021/10/19 06:55:47;;;;;;;27.70;24.37;;;;;;;;;;5052198;28;20639;-75
2021/10/19 06:58:13;;;;;;;28.20;25.27;;;;;;;;;;5051669;28;20210;-75
2021/10/19 07:00:40;;;;;;;28.93;25.83;;;;;;;;;;5053334;28;20216;-77
2021/10/19 07:03:08;;;;;;;27.80;25.00;;;;;;;;;;5050935;28;20233;-77
2021/10/19 07:05:35;;;;;;;28.60;25.50;;;;;;;;;;5050734;28;20233;-75
2021/10/19 07:08:02;;;;;;;27.20;24.37;;;;;;;;;;5048712;28;20210;-75
2021/10/19 07:10:29;;;;;;;25.83;22.70;;;;;;;;;;5054010;28;20210;-75
2021/10/19 07:12:55;;;;;;;28.07;25.23;;;;;;;;;;5052913;28;20225;-75
2021/10/19 07:15:21;;;;;;;27.60;24.53;;;;;;;;;;5052173;28;20234;-75
2021/10/19 07:17:48;;;;;;;29.33;25.87;;;;;;;;;;5051520;28;20213;-75
2021/10/19 07:20:16;;;;;;;26.30;23.50;;;;;;;;;;5052860;28;20241;-75
2021/10/19 07:22:43;;;;;;;28.03;23.83;;;;;;;;;;5050618;28;20215;-75
2021/10/19 07:25:10;;;;;;;27.67;24.70;;;;;;;;;;5050917;28;20233;-75
2021/10/19 07:27:37;;;;;;;27.00;24.20;;;;;;;;;;5052440;28;20213;-76
2021/10/19 07:30:05;;;;;;;27.93;24.57;;;;;;;;;;5052340;28;20209;-75
2021/10/19 07:32:31;;;;;;;28.57;24.77;;;;;;;;;;5049642;28;20211;-76
2021/10/19 07:34:57;;;;;;;25.40;22.63;;;;;;;;;;5051928;28;20243;-76
2021/10/19 07:37:25;;;;;;;29.50;25.80;;;;;;;;;;5051328;28;20779;-75
2021/10/19 07:39:52;;;;;;;29.70;24.37;;;;;;;;;;5050178;28;20230;-76
2021/10/19 07:42:18;;;;;;;28.50;23.60;;;;;;;;;;5051746;28;20540;-75
2021/10/19 07:44:45;;;;;;;30.00;24.70;;;;;;;;;;5050622;28;20269;-76
2021/10/19 07:47:11;;;;;;;27.10;23.73;;;;;;;;;;5050382;28;20214;-76
2021/10/19 07:49:43;;;;;;;27.93;24.47;;;;;;;;;;5050977;28;20238;-76
2021/10/19 07:52:10;;;;;;;29.67;24.40;;;;;;;;;;5050727;28;20209;-76
2021/10/19 07:54:37;;;;;;;33.37;26.27;;;;;;;;;;5049288;28;20269;-75
2021/10/19 07:57:05;;;;;;;27.23;24.03;;;;;;;;;;5051384;28;20249;-76
2021/10/19 07:59:31;;;;;;;31.73;26.93;;;;;;;;;;5051330;28;20218;-74
2021/10/19 08:01:58;;;;;;;34.57;27.77;;;;;;;;;;5052024;28;21039;-74
2021/10/19 08:04:24;;;;;;;31.10;25.63;;;;;;;;;;5056022;28;20232;-74
2021/10/19 08:06:51;;;;;;;31.33;26.83;;;;;;;;;;5055758;28;20683;-74
2021/10/19 08:09:17;;;;;;;42.60;28.00;;;;;;;;;;5055094;28;20345;-75
2021/10/19 08:11:45;;;;;;;31.33;26.70;;;;;;;;;;5055903;28;20211;-74
2021/10/19 08:14:11;;;;;;;35.23;29.17;;;;;;;;;;5054668;28;20246;-74
2021/10/19 08:16:38;;;;;;;36.43;29.50;;;;;;;;;;5056096;28;20245;-74
2021/10/19 08:19:04;;;;;;;48.07;38.53;;;;;;;;;;5056503;28;20608;-75
2021/10/19 08:21:31;;;;;;;58.23;45.93;;;;;;;;;;5055831;28;20302;-74
2021/10/19 08:23:58;;;;;;;50.30;41.27;;;;;;;;;;5054644;28;20681;-74
2021/10/19 08:26:29;;;;;;;46.43;38.53;;;;;;;;;;5053941;28;20210;-74
2021/10/19 08:28:57;;;;;;;33.23;29.63;;;;;;;;;;5055122;28;20210;-74
2021/10/19 08:31:24;;;;;;;28.83;25.90;;;;;;;;;;5053361;28;20311;-74
2021/10/19 08:33:52;;;;;;;31.67;28.33;;;;;;;;;;5053992;28;20227;-74
2021/10/19 08:36:18;;;;;;;25.83;23.03;;;;;;;;;;5054254;28;20278;-74
2021/10/19 08:38:46;;;;;;;28.67;25.60;;;;;;;;;;5055249;28;20231;-73
2021/10/19 08:41:13;;;;;;;27.80;25.10;;;;;;;;;;5054646;28;20234;-72
2021/10/19 08:43:40;;;;;;;26.90;24.03;;;;;;;;;;5055375;28;20275;-72
2021/10/19 08:46:09;;;;;;;26.00;23.30;;;;;;;;;;5055487;28;20215;-72
2021/10/19 08:48:36;;;;;;;26.70;22.77;;;;;;;;;;5053858;28;20260;-72
2021/10/19 08:51:03;;;;;;;25.03;22.43;;;;;;;;;;5053160;28;20648;-72
2021/10/19 08:53:29;;;;;;;21.77;19.47;;;;;;;;;;5051442;28;20232;-72
2021/10/19 08:55:55;;;;;;;24.20;21.70;;;;;;;;;;5057962;28;20275;-72
2021/10/19 08:58:22;;;;;;;24.97;20.80;;;;;;;;;;5051225;28;20226;-72
2021/10/19 09:00:48;;;;;;;22.60;20.27;;;;;;;;;;5053134;28;20283;-72
2021/10/19 09:03:22;;;;;;;24.27;21.77;;;;;;;;;;5053493;28;20214;-72
2021/10/19 09:05:49;;;;;;;25.57;22.37;;;;;;;;;;5055867;28;20313;-72
2021/10/19 09:08:18;;;;;;;27.20;21.97;;;;;;;;;;5053596;28;20234;-72
2021/10/19 09:10:46;;;;;;;23.97;21.37;;;;;;;;;;5054088;28;20811;-72
2021/10/19 09:13:14;;;;;;;23.70;20.47;;;;;;;;;;5052522;28;20242;-72
2021/10/19 09:15:43;;;;;;;26.37;21.60;;;;;;;;;;5053099;28;20276;-72
2021/10/19 09:18:12;;;;;;;24.13;20.07;;;;;;;;;;5053467;28;20215;-72
2021/10/19 09:20:42;;;;;;;22.50;20.13;;;;;;;;;;5054063;28;20279;-72
2021/10/19 09:23:12;;;;;;;22.87;20.50;;;;;;;;;;5053099;28;20643;-72
2021/10/19 09:25:40;;;;;;;23.40;20.90;;;;;;;;;;5054003;28;20627;-72
2021/10/19 09:28:09;;;;;;;26.57;19.97;;;;;;;;;;5054073;28;20215;-74
2021/10/19 09:30:42;;;;;;;20.67;18.63;;;;;;;;;;5053959;28;20220;-74
2021/10/19 09:33:12;;;;;;;21.30;19.17;;;;;;;;;;5052276;28;20245;-74
2021/10/19 09:35:40;;;;;;;22.43;20.13;;;;;;;;;;5053710;28;20225;-75
2021/10/19 09:38:09;;;;;;;23.30;19.70;;;;;;;;;;5052731;28;21001;-73
2021/10/19 09:40:36;;;;;;;21.43;19.13;;;;;;;;;;5053851;28;20218;-73
2021/10/19 09:43:05;;;;;;;23.53;19.43;;;;;;;;;;5054278;28;20795;-73
2021/10/19 09:45:34;;;;;;;21.73;19.43;;;;;;;;;;5053082;28;20211;-73
2021/10/19 09:48:01;;;;;;;21.47;18.77;;;;;;;;;;5055098;28;20216;-73
2021/10/19 09:50:29;;;;;;;21.70;19.47;;;;;;;;;;5053222;28;20238;-73
2021/10/19 09:52:57;;;;;;;21.83;18.30;;;;;;;;;;5051116;28;20209;-73
2021/10/19 09:55:24;;;;;;;21.93;18.53;;;;;;;;;;5054097;28;20231;-73
2021/10/19 09:57:52;;;;;;;45.83;19.90;;;;;;;;;;5053274;28;20237;-73
2021/10/19 10:00:20;;;;;;;18.53;16.57;;;;;;;;;;5053289;28;20234;-73
2021/10/19 10:02:47;;;;;;;20.50;16.57;;;;;;;;;;5055565;28;20226;-73
2021/10/19 10:05:14;;;;;;;17.37;15.67;;;;;;;;;;5053286;28;20704;-73
2021/10/19 10:07:43;;;;;;;14.80;12.93;;;;;;;;;;5054525;28;20204;-73
2021/10/19 10:10:13;;;;;;;17.23;15.30;;;;;;;;;;5053099;28;20240;-73
2021/10/19 10:12:44;;;;;;;15.23;13.67;;;;;;;;;;5051497;28;20215;-73
2021/10/19 10:15:22;;;;;;;20.43;14.33;;;;;;;;;;5034121;28;20664;-74
2021/10/19 10:17:50;;;;;;;15.13;13.10;;;;;;;;;;5032110;28;20554;-74
2021/10/19 10:20:17;;;;;;;32.87;16.17;;;;;;;;;;5031838;28;20240;-75
2021/10/19 10:22:44;;;;;;;12.67;11.37;;;;;;;;;;5034207;28;20613;-75
2021/10/19 10:25:15;;;;;;;14.60;12.90;;;;;;;;;;5032554;28;20235;-75
2021/10/19 10:27:42;;;;;;;16.47;12.10;;;;;;;;;;5032966;28;20560;-75
2021/10/19 10:30:19;;;;;;;13.83;12.43;;;;;;;;;;5033681;28;20300;-75
2021/10/19 10:32:46;;;;;;;13.63;12.23;;;;;;;;;;5032796;28;20215;-75
2021/10/19 10:35:14;;;;;;;13.73;12.43;;;;;;;;;;5033696;28;20240;-75
2021/10/19 10:37:45;;;;;;;12.00;10.90;;;;;;;;;;5031563;28;20265;-74
2021/10/19 10:40:26;;;;;;;13.43;12.03;;;;;;;;;;5033292;28;20235;-75
2021/10/19 10:42:53;;;;;;;12.50;11.40;;;;;;;;;;5031555;28;20223;-74
2021/10/19 10:45:21;;;;;;;12.43;11.30;;;;;;;;;;5034278;28;20215;-74
2021/10/19 10:47:54;;;;;;;13.17;11.93;;;;;;;;;;5034329;28;20219;-76
2021/10/19 10:50:21;;;;;;;12.67;11.47;;;;;;;;;;5032954;28;20225;-73
2021/10/19 10:52:57;;;;;;;12.70;11.50;;;;;;;;;;5030832;28;20280;-75
2021/10/19 10:55:25;;;;;;;12.03;10.97;;;;;;;;;;5032144;28;20231;-76
2021/10/19 10:57:51;;;;;;;10.77;9.67;;;;;;;;;;5032619;28;20220;-76
2021/10/19 11:00:24;;;;;;;11.50;10.50;;;;;;;;;;5032700;28;20211;-75
2021/10/19 11:02:50;;;;;;;11.63;10.57;;;;;;;;;;5031506;28;20638;-75
2021/10/19 11:05:17;;;;;;;12.47;11.37;;;;;;;;;;5032402;28;20643;-73
2021/10/19 11:07:44;;;;;;;11.03;10.03;;;;;;;;;;5031899;28;20261;-73
2021/10/19 11:10:13;;;;;;;20.00;11.93;;;;;;;;;;5033993;28;20235;-74
2021/10/19 11:12:42;;;;;;;13.20;11.80;;;;;;;;;;5031780;28;20214;-73
2021/10/19 11:15:18;;;;;;;13.73;12.47;;;;;;;;;;5032671;28;20245;-74
2021/10/19 11:17:46;;;;;;;12.57;11.27;;;;;;;;;;5032187;28;20286;-74
2021/10/19 11:20:13;;;;;;;13.80;11.73;;;;;;;;;;5034262;28;20243;-74
2021/10/19 11:22:40;;;;;;;15.07;12.20;;;;;;;;;;5033129;28;20212;-73
2021/10/19 11:25:07;;;;;;;17.20;14.00;;;;;;;;;;5030262;28;20229;-74
2021/10/19 11:27:34;;;;;;;17.77;13.50;;;;;;;;;;5034422;28;20246;-73
2021/10/19 11:30:02;;;;;;;16.60;13.87;;;;;;;;;;5032267;28;20268;-73
2021/10/19 11:32:28;;;;;;;17.33;13.63;;;;;;;;;;5031184;28;20221;-73
2021/10/19 11:34:55;;;;;;;15.70;14.20;;;;;;;;;;5032893;28;20244;-74
2021/10/19 11:37:22;;;;;;;16.67;15.03;;;;;;;;;;5032382;28;20210;-74
2021/10/19 11:39:49;;;;;;;16.47;13.50;;;;;;;;;;5036339;28;20240;-75
2021/10/19 11:42:15;;;;;;;16.33;14.73;;;;;;;;;;5036083;28;20231;-76
2021/10/19 11:44:41;;;;;;;16.57;14.90;;;;;;;;;;5033909;28;20279;-75
2021/10/19 11:47:11;;;;;;;17.53;15.77;;;;;;;;;;5037193;28;20214;-74
2021/10/19 11:49:41;;;;;;;18.37;16.57;;;;;;;;;;5034790;28;20294;-74
2021/10/19 11:52:08;;;;;;;24.60;16.93;;;;;;;;;;5033774;28;20209;-74
2021/10/19 11:54:35;;;;;;;22.27;16.63;;;;;;;;;;5036792;28;20813;-74
2021/10/19 11:57:03;;;;;;;18.17;16.13;;;;;;;;;;5035975;28;20331;-74
2021/10/19 11:59:40;;;;;;;19.17;17.17;;;;;;;;;;5035817;28;20696;-74
2021/10/19 12:02:09;;;;;;;21.93;15.50;;;;;;;;;;5035492;28;20606;-74
2021/10/19 12:04:40;;;;;;;18.20;15.70;;;;;;;;;;5035726;28;20257;-74
2021/10/19 12:07:06;;;;;;;18.33;16.00;;;;;;;;;;5034894;28;20209;-74
2021/10/19 12:09:35;;;;;;;19.10;17.10;;;;;;;;;;5035561;28;20779;-74
2021/10/19 12:12:02;;;;;;;17.80;15.30;;;;;;;;;;5034988;28;20218;-74
2021/10/19 12:14:29;;;;;;;17.57;14.90;;;;;;;;;;5049785;28;20253;-74
2021/10/19 12:16:57;;;;;;;16.40;14.70;;;;;;;;;;5055260;28;20656;-72
2021/10/19 12:19:25;;;;;;;18.73;15.60;;;;;;;;;;5054420;28;20374;-73
2021/10/19 12:21:53;;;;;;;15.60;14.00;;;;;;;;;;5056093;28;20663;-73
2021/10/19 12:24:20;;;;;;;17.83;15.77;;;;;;;;;;5054321;28;20234;-73
2021/10/19 12:26:47;;;;;;;17.33;15.40;;;;;;;;;;5054302;28;20227;-73
2021/10/19 12:29:14;;;;;;;19.50;15.37;;;;;;;;;;5054995;28;20522;-73
2021/10/19 12:31:44;;;;;;;15.77;14.00;;;;;;;;;;5054250;28;20772;-73
2021/10/19 12:34:11;;;;;;;14.20;12.80;;;;;;;;;;5054280;28;20241;-73
2021/10/19 12:36:41;;;;;;;14.33;12.93;;;;;;;;;;5054713;28;20693;-72
2021/10/19 12:39:14;;;;;;;14.77;12.30;;;;;;;;;;5052772;28;20221;-73
2021/10/19 12:41:42;;;;;;;13.80;12.40;;;;;;;;;;5056022;28;20225;-73
2021/10/19 12:44:12;;;;;;;13.07;11.80;;;;;;;;;;5054615;28;20623;-73
2021/10/19 12:46:39;;;;;;;14.97;12.23;;;;;;;;;;5055350;28;20296;-73
2021/10/19 12:49:07;;;;;;;13.23;11.83;;;;;;;;;;5052365;28;20682;-73
2021/10/19 12:51:35;;;;;;;13.90;12.60;;;;;;;;;;5054541;28;20511;-73
2021/10/19 12:54:04;;;;;;;14.00;12.63;;;;;;;;;;5054873;28;20229;-72
2021/10/19 12:56:32;;;;;;;15.50;14.00;;;;;;;;;;5054865;28;20241;-73
2021/10/19 12:58:59;;;;;;;16.63;14.93;;;;;;;;;;5057139;28;20239;-73
2021/10/19 13:01:26;;;;;;;17.43;15.73;;;;;;;;;;5055652;28;20930;-73
2021/10/19 13:03:54;;;;;;;18.93;17.03;;;;;;;;;;5055583;28;20674;-73
2021/10/19 13:06:21;;;;;;;19.70;17.53;;;;;;;;;;5054859;28;20233;-73
2021/10/19 13:08:49;;;;;;;21.90;18.73;;;;;;;;;;5053759;28;20421;-73
2021/10/19 13:11:17;;;;;;;19.87;17.80;;;;;;;;;;5055146;28;20825;-73
2021/10/19 13:13:44;;;;;;;19.23;17.13;;;;;;;;;;5054118;28;20237;-73
2021/10/19 13:16:11;;;;;;;21.27;17.23;;;;;;;;;;5054017;28;20273;-72
2021/10/19 13:18:39;;;;;;;20.30;18.20;;;;;;;;;;5054436;28;20234;-73
2021/10/19 13:21:06;;;;;;;21.67;19.53;;;;;;;;;;5055417;28;20213;-73
2021/10/19 13:23:32;;;;;;;20.50;18.47;;;;;;;;;;5044286;28;20232;-73
2021/10/19 13:25:59;;;;;;;22.00;19.10;;;;;;;;;;5053841;28;20201;-73
2021/10/19 13:28:27;;;;;;;21.57;18.40;;;;;;;;;;5054206;28;20765;-73
2021/10/19 13:30:54;;;;;;;23.70;19.27;;;;;;;;;;5053362;28;20352;-72
2021/10/19 13:33:21;;;;;;;24.87;19.60;;;;;;;;;;5052991;28;20282;-72
2021/10/19 13:35:48;;;;;;;22.20;17.57;;;;;;;;;;5052678;28;20241;-72
2021/10/19 13:38:15;;;;;;;21.97;19.60;;;;;;;;;;5053655;28;20529;-72
2021/10/19 13:40:43;;;;;;;23.90;18.10;;;;;;;;;;5053954;28;20645;-72
2021/10/19 13:43:10;;;;;;;23.10;18.77;;;;;;;;;;5050638;28;20738;-73
2021/10/19 13:45:38;;;;;;;23.83;19.40;;;;;;;;;;5055212;28;20636;-73
2021/10/19 13:48:07;;;;;;;22.67;17.87;;;;;;;;;;5054217;28;20221;-72
2021/10/19 13:50:34;;;;;;;25.60;17.90;;;;;;;;;;5054803;28;20223;-73
2021/10/19 13:53:01;;;;;;;22.13;18.53;;;;;;;;;;5054419;28;20557;-73
2021/10/19 13:55:27;;;;;;;25.57;17.37;;;;;;;;;;5053019;28;20222;-72
2021/10/19 13:57:53;;;;;;;23.37;18.90;;;;;;;;;;5053244;28;20231;-73
2021/10/19 14:00:20;;;;;;;26.20;19.03;;;;;;;;;;5053307;28;20225;-73
2021/10/19 14:02:48;;;;;;;25.33;20.23;;;;;;;;;;5053183;28;20270;-72
2021/10/19 14:05:15;;;;;;;23.37;18.50;;;;;;;;;;5053858;28;20293;-72
2021/10/19 14:07:41;;;;;;;25.03;20.10;;;;;;;;;;5052553;28;20205;-72
2021/10/19 14:10:09;;;;;;;26.30;19.70;;;;;;;;;;5053306;28;20255;-72
2021/10/19 14:12:38;;;;;;;20.93;18.80;;;;;;;;;;5051429;28;20268;-72
2021/10/19 14:15:05;;;;;;;25.50;19.93;;;;;;;;;;5052061;28;20332;-72
2021/10/19 14:17:32;;;;;;;25.30;19.97;;;;;;;;;;5054008;28;20236;-71